createdAt,value
2022-08-19T00:00:46.288Z,6.57
2022-08-19T00:03:14.945Z,5.30
2022-08-19T00:05:44.698Z,5.72
2022-08-19T00:08:13.367Z,5.00
2022-08-19T00:10:41.747Z,5.57
2022-08-19T00:13:10.481Z,4.30
2022-08-19T00:15:38.935Z,3.95
2022-08-19T00:18:07.439Z,4.05
2022-08-19T00:20:35.827Z,4.03
2022-08-19T00:23:05.688Z,4.13
2022-08-19T00:25:34.385Z,5.28
2022-08-19T00:28:02.794Z,4.50
2022-08-19T00:30:31.227Z,3.40
2022-08-19T00:32:59.737Z,4.25
2022-08-19T00:35:29.107Z,3.30
2022-08-19T00:37:57.716Z,1.92
2022-08-19T00:40:28.129Z,4.63
2022-08-19T00:42:56.637Z,8.27
2022-08-19T00:45:28.009Z,5.38
2022-08-19T00:47:56.401Z,4.15
2022-08-19T00:50:24.945Z,3.88
2022-08-19T00:52:57.053Z,2.78
2022-08-19T00:55:31.226Z,3.50
2022-08-19T00:58:01.468Z,3.90
2022-08-19T01:00:30.417Z,3.28
2022-08-19T01:02:58.881Z,3.85
2022-08-19T01:05:30.594Z,4.50
2022-08-19T01:07:59.863Z,3.03
2022-08-19T01:10:34.754Z,4.05
2022-08-19T01:13:05.763Z,3.20
2022-08-19T01:15:35.369Z,3.97
2022-08-19T01:18:04.907Z,3.60
2022-08-19T01:20:35.422Z,4.05
2022-08-19T01:23:06.078Z,3.55
2022-08-19T01:25:37.165Z,3.58
2022-08-19T01:28:11.177Z,4.05
2022-08-19T01:30:39.936Z,4.57
2022-08-19T01:33:12.948Z,5.47
2022-08-19T01:35:41.370Z,6.05
2022-08-19T01:38:12.502Z,7.15
2022-08-19T01:40:43.191Z,7.80
2022-08-19T01:43:11.819Z,7.53
2022-08-19T01:45:41.162Z,8.75
2022-08-19T01:48:11.521Z,9.85
2022-08-19T01:50:39.878Z,8.68
2022-08-19T01:53:09.602Z,7.50
2022-08-19T01:55:42.215Z,11.70
2022-08-19T01:58:12.720Z,12.00
2022-08-19T02:00:41.127Z,10.80
2022-08-19T02:03:11.015Z,9.27
2022-08-19T02:05:39.676Z,9.93
2022-08-19T02:08:08.378Z,9.13
2022-08-19T02:10:36.741Z,16.45
2022-08-19T02:13:06.484Z,10.82
2022-08-19T02:15:34.833Z,9.50
2022-08-19T02:18:03.211Z,14.70
2022-08-19T02:20:31.600Z,12.63
2022-08-19T02:22:59.967Z,13.13
2022-08-19T02:25:28.297Z,13.93
2022-08-19T02:27:56.663Z,16.75
2022-08-19T02:30:26.671Z,12.75
2022-08-19T02:32:55.292Z,18.33
2022-08-19T02:35:24.092Z,19.40
2022-08-19T02:38:09.972Z,19.38
2022-08-19T02:40:38.478Z,17.70
2022-08-19T02:43:08.298Z,19.40
2022-08-19T02:45:40.402Z,15.50
2022-08-19T02:48:14.919Z,17.48
2022-08-19T02:50:53.914Z,19.33
2022-08-19T02:53:23.121Z,16.83
2022-08-19T02:55:52.296Z,17.50
2022-08-19T02:58:21.268Z,16.92
2022-08-19T03:00:52.605Z,22.52
2022-08-19T03:03:21.691Z,20.77
2022-08-19T03:05:56.843Z,19.73
2022-08-19T03:08:26.578Z,26.33
2022-08-19T03:10:55.685Z,24.20
2022-08-19T03:13:24.491Z,24.70
2022-08-19T03:15:54.195Z,22.60
2022-08-19T03:18:23.171Z,27.98
2022-08-19T03:20:53.818Z,25.67
2022-08-19T03:23:22.428Z,27.55
2022-08-19T03:25:58.390Z,24.75
2022-08-19T03:28:40.497Z,25.13
2022-08-19T03:31:41.705Z,29.73
2022-08-19T03:34:01.000Z,26.95
2022-08-19T03:36:29.891Z,28.90
2022-08-19T03:39:00.107Z,32.08
2022-08-19T03:41:44.455Z,31.05
2022-08-19T03:44:18.533Z,33.33
2022-08-19T03:46:49.643Z,36.20
2022-08-19T03:49:18.738Z,32.70
2022-08-19T03:51:48.995Z,41.22
2022-08-19T03:54:18.473Z,32.17
2022-08-19T03:56:48.284Z,34.38
2022-08-19T03:59:21.103Z,38.45
2022-08-19T04:01:50.828Z,39.20
2022-08-19T04:04:20.013Z,39.28
2022-08-19T04:06:48.862Z,45.63
2022-08-19T04:09:17.315Z,44.75
2022-08-19T04:11:47.608Z,37.10
2022-08-19T04:14:18.379Z,48.22
2022-08-19T04:16:47.387Z,44.88
2022-08-19T04:19:17.851Z,40.00
2022-08-19T04:21:47.472Z,42.70
2022-08-19T04:24:15.827Z,41.35
2022-08-19T04:26:44.243Z,51.00
2022-08-19T04:29:13.723Z,55.17
2022-08-19T04:31:42.954Z,52.25
2022-08-19T04:34:12.340Z,45.22
2022-08-19T04:36:43.167Z,39.22
2022-08-19T04:39:12.890Z,50.53
2022-08-19T04:41:58.752Z,42.35
2022-08-19T04:44:27.588Z,46.13
2022-08-19T04:46:57.003Z,43.47
2022-08-19T04:49:26.432Z,39.83
2022-08-19T04:51:56.829Z,41.72
2022-08-19T04:54:37.235Z,43.03
2022-08-19T04:57:10.650Z,43.03
2022-08-19T04:59:39.572Z,47.17
2022-08-19T05:02:09.619Z,45.22
2022-08-19T05:04:40.261Z,39.67
2022-08-19T05:07:10.913Z,40.67
2022-08-19T05:09:55.746Z,43.40
2022-08-19T05:12:29.293Z,38.30
2022-08-19T05:14:58.681Z,34.03
2022-08-19T05:17:28.984Z,38.63
2022-08-19T05:20:18.209Z,32.30
2022-08-19T05:22:49.298Z,36.38
2022-08-19T05:25:20.430Z,42.17
2022-08-19T05:27:49.899Z,42.30
2022-08-19T05:30:18.553Z,37.70
2022-08-19T05:32:48.774Z,35.97
2022-08-19T05:35:17.201Z,35.50
2022-08-19T05:37:45.590Z,35.53
2022-08-19T05:40:15.417Z,34.63
2022-08-19T05:42:43.816Z,35.15
2022-08-19T05:45:15.196Z,36.03
2022-08-19T05:47:43.575Z,40.78
2022-08-19T05:50:11.939Z,44.88
2022-08-19T05:52:43.626Z,32.35
2022-08-19T05:55:15.871Z,33.92
2022-08-19T05:57:44.227Z,37.50
2022-08-19T06:00:13.448Z,35.72
2022-08-19T06:02:42.211Z,39.45
2022-08-19T06:05:11.095Z,35.72
2022-08-19T06:07:40.143Z,37.97
2022-08-19T06:10:09.761Z,44.58
2022-08-19T06:12:39.503Z,42.92
2022-08-19T06:15:09.665Z,35.88
2022-08-19T06:17:38.114Z,47.20
2022-08-19T06:20:07.616Z,47.85
2022-08-19T06:22:40.015Z,47.47
2022-08-19T06:25:10.091Z,44.50
2022-08-19T06:27:58.681Z,54.85
2022-08-19T06:30:28.927Z,50.67
2022-08-19T06:32:57.480Z,53.50
2022-08-19T06:35:26.355Z,49.58
2022-08-19T06:37:55.200Z,55.65
2022-08-19T06:40:23.863Z,46.53
2022-08-19T06:42:54.939Z,55.63
2022-08-19T06:45:24.539Z,47.75
2022-08-19T06:47:57.000Z,54.60
2022-08-19T06:50:25.778Z,60.53
2022-08-19T06:52:55.223Z,69.40
2022-08-19T06:55:24.162Z,65.20
2022-08-19T06:57:54.523Z,62.78
2022-08-19T07:00:23.215Z,53.00
2022-08-19T07:02:55.833Z,53.40
2022-08-19T07:05:27.814Z,64.63
2022-08-19T07:07:59.719Z,59.90
2022-08-19T07:10:33.049Z,51.92
2022-08-19T07:13:02.781Z,50.50
2022-08-19T07:15:31.789Z,48.13
2022-08-19T07:18:00.231Z,50.55
2022-08-19T07:20:29.595Z,55.42
2022-08-19T07:22:59.069Z,51.92
2022-08-19T07:25:32.240Z,59.60
2022-08-19T07:28:03.217Z,58.03
2022-08-19T07:30:32.750Z,62.17
2022-08-19T07:33:03.749Z,60.28
2022-08-19T07:35:33.024Z,64.18
2022-08-19T07:38:03.555Z,64.90
2022-08-19T07:40:32.419Z,47.25
2022-08-19T07:43:00.801Z,52.28
2022-08-19T07:45:31.036Z,56.80
2022-08-19T07:48:00.216Z,65.35
2022-08-19T07:50:29.448Z,68.40
2022-08-19T07:52:58.057Z,71.55
2022-08-19T07:55:41.708Z,60.92
2022-08-19T07:58:12.474Z,63.45
2022-08-19T08:00:42.471Z,75.90
2022-08-19T08:03:10.886Z,68.25
2022-08-19T08:05:56.956Z,66.70
2022-08-19T08:08:44.049Z,63.42
2022-08-19T08:11:19.902Z,63.78
2022-08-19T08:14:00.428Z,63.38
2022-08-19T08:16:32.222Z,77.18
2022-08-19T08:19:01.328Z,67.53
2022-08-19T08:21:29.746Z,79.00
2022-08-19T08:26:31.539Z,82.45
2022-08-19T08:29:02.946Z,84.30
2022-08-19T08:31:43.451Z,65.55
2022-08-19T08:34:12.220Z,87.10
2022-08-19T08:36:42.810Z,78.35
2022-08-19T08:39:11.256Z,95.07
2022-08-19T08:41:47.533Z,82.88
2022-08-19T08:44:19.947Z,77.97
2022-08-19T08:46:52.720Z,82.68
2022-08-19T08:49:28.710Z,91.80
2022-08-19T08:52:03.172Z,87.85
2022-08-19T08:54:34.948Z,95.72
2022-08-19T08:57:05.550Z,72.80
2022-08-19T08:59:36.362Z,84.53
2022-08-19T09:02:06.143Z,89.97
2022-08-19T09:04:34.509Z,69.10
2022-08-19T09:07:18.094Z,77.55
2022-08-19T09:10:01.020Z,101.93
2022-08-19T09:12:35.344Z,96.18
2022-08-19T09:15:05.844Z,92.60
2022-08-19T09:17:36.345Z,91.00
2022-08-19T09:20:09.401Z,107.90
2022-08-19T09:22:38.095Z,98.22
2022-08-19T09:25:07.750Z,102.13
2022-08-19T09:27:43.157Z,97.75
2022-08-19T09:30:14.260Z,99.60
2022-08-19T09:32:44.360Z,102.75
2022-08-19T09:35:13.541Z,85.35
2022-08-19T09:37:43.202Z,102.05
2022-08-19T09:40:12.290Z,82.00
2022-08-19T09:42:50.334Z,104.25
2022-08-19T09:45:22.883Z,99.72
2022-08-19T09:47:54.355Z,98.70
2022-08-19T09:50:23.787Z,102.57
2022-08-19T09:52:57.213Z,87.10
2022-08-19T09:55:31.648Z,99.90
2022-08-19T09:58:02.473Z,70.45
2022-08-19T10:00:31.203Z,82.80
2022-08-19T10:03:01.147Z,68.60
2022-08-19T10:05:48.511Z,69.95
2022-08-19T10:08:18.069Z,73.05
2022-08-19T10:10:47.247Z,74.70
2022-08-19T10:13:16.667Z,83.00
2022-08-19T10:15:48.157Z,93.05
2022-08-19T10:18:19.905Z,80.70
2022-08-19T10:20:51.780Z,70.20
2022-08-19T10:23:21.705Z,81.28
2022-08-19T10:25:50.618Z,92.03
2022-08-19T10:28:19.675Z,78.88
2022-08-19T10:30:48.844Z,74.63
2022-08-19T10:33:36.533Z,81.28
2022-08-19T10:36:08.091Z,71.25
2022-08-19T10:38:36.609Z,87.88
2022-08-19T10:41:12.025Z,85.53
2022-08-19T10:43:40.858Z,87.10
2022-08-19T10:46:14.138Z,129.07
2022-08-19T10:48:47.189Z,98.03
2022-08-19T10:51:33.148Z,122.47
2022-08-19T10:54:02.575Z,81.65
2022-08-19T10:56:52.963Z,101.80
2022-08-19T10:59:22.502Z,64.50
2022-08-19T11:01:55.751Z,69.60
2022-08-19T11:04:29.567Z,83.43
2022-08-19T11:06:58.581Z,62.35
2022-08-19T11:09:33.531Z,39.15
2022-08-19T11:12:04.858Z,45.60
2022-08-19T11:14:34.489Z,36.35
2022-08-19T11:17:03.310Z,43.40
2022-08-19T11:19:33.377Z,36.92
2022-08-19T11:22:05.673Z,40.00
2022-08-19T11:24:34.710Z,35.53
2022-08-19T11:27:06.410Z,54.03
2022-08-19T11:29:35.760Z,40.58
2022-08-19T11:32:06.723Z,45.70
2022-08-19T11:34:36.540Z,65.70
2022-08-19T11:37:06.786Z,31.65
2022-08-19T11:39:36.587Z,35.70
2022-08-19T11:42:26.034Z,31.13
2022-08-19T11:44:54.513Z,27.30
2022-08-19T11:47:23.021Z,29.00
2022-08-19T11:49:54.429Z,25.60
2022-08-19T11:52:22.818Z,21.27
2022-08-19T11:54:51.281Z,17.27
2022-08-19T11:57:20.729Z,13.35
2022-08-19T11:59:54.302Z,14.48
2022-08-19T12:02:22.783Z,17.77
2022-08-19T12:04:52.514Z,20.17
2022-08-19T12:07:21.412Z,21.25
2022-08-19T12:09:50.276Z,21.50
2022-08-19T12:12:18.850Z,23.42
2022-08-19T12:14:47.547Z,27.13
2022-08-19T12:17:16.239Z,25.75
2022-08-19T12:19:45.404Z,29.80
2022-08-19T12:22:15.138Z,27.45
2022-08-19T12:24:43.658Z,27.83
2022-08-19T12:27:12.822Z,26.45
2022-08-19T12:29:42.530Z,30.77
2022-08-19T12:32:12.069Z,24.15
2022-08-19T12:34:41.409Z,20.48
2022-08-19T12:37:10.072Z,23.45
2022-08-19T12:39:42.420Z,22.35
2022-08-19T12:42:11.181Z,19.70
2022-08-19T12:44:41.595Z,12.77
2022-08-19T12:47:11.674Z,10.57
2022-08-19T12:49:54.544Z,13.32
2022-08-19T12:52:24.903Z,15.10
2022-08-19T12:54:55.337Z,9.48
2022-08-19T12:57:32.197Z,9.80
2022-08-19T13:00:02.169Z,10.35
2022-08-19T13:02:38.573Z,13.63
2022-08-19T13:05:09.163Z,9.52
2022-08-19T13:07:38.223Z,13.63
2022-08-19T13:10:09.782Z,15.50
2022-08-19T13:12:38.166Z,12.85
2022-08-19T13:15:10.823Z,13.75
2022-08-19T13:17:40.194Z,16.63
2022-08-19T13:20:09.679Z,11.95
2022-08-19T13:22:38.453Z,15.20
2022-08-19T13:25:09.309Z,13.38
2022-08-19T13:27:38.215Z,14.82
2022-08-19T13:30:22.240Z,15.95
2022-08-19T13:33:07.608Z,15.57
2022-08-19T13:35:36.023Z,12.65
2022-08-19T13:38:05.777Z,17.30
2022-08-19T13:40:39.275Z,17.10
2022-08-19T13:43:13.600Z,18.17
2022-08-19T13:45:52.293Z,17.63
2022-08-19T13:48:20.642Z,17.40
2022-08-19T13:50:49.168Z,24.15
2022-08-19T13:53:17.973Z,20.50
2022-08-19T13:55:47.874Z,21.40
2022-08-19T13:58:16.306Z,20.52
2022-08-19T14:00:46.299Z,20.98
2022-08-19T14:03:14.763Z,22.92
2022-08-19T14:05:43.262Z,24.95
2022-08-19T14:08:13.228Z,24.08
2022-08-19T14:10:41.778Z,26.75
2022-08-19T14:13:11.557Z,32.55
2022-08-19T14:15:40.600Z,29.23
2022-08-19T14:18:08.967Z,30.40
2022-08-19T14:20:37.388Z,25.58
2022-08-19T14:23:07.118Z,26.25
2022-08-19T14:25:36.238Z,32.22
2022-08-19T14:28:04.820Z,29.95
2022-08-19T14:30:37.954Z,31.92
2022-08-19T14:33:08.010Z,33.25
2022-08-19T14:35:36.500Z,21.77
2022-08-19T14:38:05.780Z,28.92
2022-08-19T14:40:35.684Z,28.40
2022-08-19T14:43:06.373Z,27.70
2022-08-19T14:45:38.052Z,27.95
2022-08-19T14:48:06.737Z,22.52
2022-08-19T14:50:35.387Z,25.38
2022-08-19T14:53:11.928Z,26.40
2022-08-19T14:55:43.858Z,31.15
2022-08-19T14:58:29.231Z,25.75
2022-08-19T15:01:01.256Z,28.13
2022-08-19T15:03:30.050Z,25.50
2022-08-19T15:05:58.907Z,38.85
2022-08-19T15:08:27.809Z,26.80
2022-08-19T15:10:56.419Z,26.02
2022-08-19T15:13:25.616Z,28.02
2022-08-19T15:15:54.060Z,30.08
2022-08-19T15:18:23.932Z,23.85
2022-08-19T15:20:52.315Z,30.55
2022-08-19T15:23:21.926Z,27.90
2022-08-19T15:25:55.915Z,26.25
2022-08-19T15:28:25.253Z,27.27
2022-08-19T15:30:53.802Z,23.92
2022-08-19T15:33:23.523Z,21.60
2022-08-19T15:35:52.613Z,19.55
2022-08-19T15:38:22.101Z,19.45
2022-08-19T15:40:50.953Z,15.50
2022-08-19T15:43:21.278Z,20.02
2022-08-19T15:45:50.219Z,16.58
2022-08-19T15:48:18.734Z,15.30
2022-08-19T15:50:48.462Z,17.45
2022-08-19T15:53:16.948Z,20.15
2022-08-19T15:55:48.562Z,17.15
2022-08-19T15:58:35.102Z,25.05
2022-08-19T16:01:22.320Z,23.45
2022-08-19T16:04:13.880Z,18.52
2022-08-19T16:06:47.332Z,12.68
2022-08-19T16:09:16.107Z,15.13
2022-08-19T16:11:46.194Z,13.45
2022-08-19T16:14:15.257Z,12.07
2022-08-19T16:16:46.763Z,14.73
2022-08-19T16:19:16.573Z,12.82
2022-08-19T16:21:47.159Z,13.75
2022-08-19T16:24:16.691Z,15.63
2022-08-19T16:26:45.927Z,16.70
2022-08-19T16:29:15.185Z,14.23
2022-08-19T16:31:58.807Z,14.95
2022-08-19T16:34:27.199Z,12.63
2022-08-19T16:36:57.131Z,15.52
2022-08-19T16:39:25.506Z,13.13
2022-08-19T16:41:53.994Z,12.07
2022-08-19T16:44:22.572Z,14.02
2022-08-19T16:46:58.487Z,14.60
2022-08-19T16:49:53.027Z,17.92
2022-08-19T16:52:18.198Z,12.32
2022-08-19T16:54:46.776Z,18.40
2022-08-19T16:57:16.573Z,18.02
2022-08-19T16:59:48.928Z,19.73
2022-08-19T17:02:18.245Z,18.33
2022-08-19T17:04:55.975Z,17.23
2022-08-19T17:07:27.731Z,22.67
2022-08-19T17:09:56.265Z,21.55
2022-08-19T17:12:29.022Z,23.90
2022-08-19T17:14:59.321Z,17.95
2022-08-19T17:17:29.326Z,22.35
2022-08-19T17:19:58.605Z,21.27
2022-08-19T17:22:28.518Z,21.85
2022-08-19T17:24:58.353Z,21.20
2022-08-19T17:27:32.542Z,17.60
2022-08-19T17:30:02.366Z,22.23
2022-08-19T17:32:31.073Z,23.02
2022-08-19T17:34:59.488Z,15.13
2022-08-19T17:37:29.598Z,18.92
2022-08-19T17:39:58.278Z,20.27
2022-08-19T17:42:26.833Z,23.17
2022-08-19T17:44:59.479Z,23.83
2022-08-19T17:47:28.450Z,22.63
2022-08-19T17:49:56.997Z,15.60
2022-08-19T17:52:25.645Z,17.25
2022-08-19T17:54:55.366Z,20.55
2022-08-19T17:57:24.384Z,20.73
2022-08-19T17:59:52.785Z,19.33
2022-08-19T18:02:22.354Z,22.73
2022-08-19T18:04:50.867Z,23.98
2022-08-19T18:07:21.631Z,19.50
2022-08-19T18:09:52.584Z,19.42
2022-08-19T18:12:26.529Z,18.30
2022-08-19T18:14:54.938Z,19.60
2022-08-19T18:17:24.455Z,17.67
2022-08-19T18:19:52.882Z,16.70
2022-08-19T18:22:26.530Z,21.58
2022-08-19T18:24:55.126Z,18.77
2022-08-19T18:27:24.956Z,18.60
2022-08-19T18:29:54.551Z,18.70
2022-08-19T18:32:25.833Z,21.83
2022-08-19T18:34:56.119Z,17.10
2022-08-19T18:37:26.710Z,18.05
2022-08-19T18:40:12.968Z,17.60
2022-08-19T18:43:17.378Z,17.60
2022-08-19T18:46:04.421Z,17.60
2022-08-19T18:48:53.551Z,17.92
2022-08-19T18:51:27.756Z,16.15
2022-08-19T18:53:58.757Z,17.13
2022-08-19T18:56:31.788Z,15.52
2022-08-19T18:59:02.112Z,13.45
2022-08-19T19:01:33.401Z,17.20
2022-08-19T19:04:03.585Z,14.27
2022-08-19T19:06:34.955Z,13.07
2022-08-19T19:09:03.431Z,13.85
2022-08-19T19:11:33.878Z,17.15
2022-08-19T19:14:04.049Z,19.05
2022-08-19T19:16:32.673Z,18.52
2022-08-19T19:19:01.056Z,19.77
2022-08-19T19:21:34.050Z,20.48
2022-08-19T19:24:03.358Z,20.98
2022-08-19T19:26:31.858Z,19.75
2022-08-19T19:29:00.264Z,17.55
2022-08-19T19:31:33.492Z,18.73
2022-08-19T19:34:01.852Z,18.10
2022-08-19T19:36:30.255Z,17.25
2022-08-19T19:38:58.588Z,16.85
2022-08-19T19:41:27.000Z,23.20
2022-08-19T19:44:16.381Z,21.10
2022-08-19T19:46:45.732Z,20.63
2022-08-19T19:49:14.118Z,16.95
2022-08-19T19:51:43.365Z,23.38
2022-08-19T19:54:13.852Z,17.25
2022-08-19T19:56:43.367Z,18.15
2022-08-19T19:59:11.712Z,18.35
2022-08-19T20:01:40.796Z,18.40
2022-08-19T20:04:14.125Z,21.17
2022-08-19T20:06:42.594Z,18.40
2022-08-19T20:09:10.827Z,19.52
2022-08-19T20:11:41.070Z,15.07
2022-08-19T20:14:11.613Z,16.25
2022-08-19T20:16:43.397Z,19.48
2022-08-19T20:19:13.203Z,22.35
2022-08-19T20:21:46.732Z,23.65
2022-08-19T20:24:18.856Z,19.23
2022-08-19T20:26:48.762Z,22.45
2022-08-19T20:29:38.738Z,18.15
2022-08-19T20:32:09.176Z,29.17
2022-08-19T20:34:38.103Z,26.25
2022-08-19T20:37:09.485Z,23.98
2022-08-19T20:39:38.258Z,29.60
2022-08-19T20:42:06.944Z,30.50
2022-08-19T20:44:35.581Z,32.60
2022-08-19T20:47:04.336Z,28.05
2022-08-19T20:49:32.971Z,34.28
2022-08-19T20:52:01.340Z,25.55
2022-08-19T20:54:31.173Z,32.85
2022-08-19T20:56:59.570Z,32.33
2022-08-19T20:59:28.048Z,26.75
2022-08-19T21:01:57.124Z,30.77
2022-08-19T21:04:26.368Z,31.30
2022-08-19T21:06:55.102Z,32.00
2022-08-19T21:09:23.528Z,33.10
2022-08-19T21:11:53.697Z,30.98
2022-08-19T21:14:23.159Z,26.80
2022-08-19T21:16:51.549Z,30.77
2022-08-19T21:19:23.720Z,26.50
2022-08-19T21:21:52.572Z,27.45
2022-08-19T21:24:20.976Z,29.08
2022-08-19T21:26:51.442Z,30.88
2022-08-19T21:29:21.337Z,37.33
2022-08-19T21:31:50.255Z,35.55
2022-08-19T21:34:18.650Z,33.03
2022-08-19T21:36:47.133Z,32.50
2022-08-19T21:39:15.519Z,31.08
2022-08-19T21:41:43.971Z,29.83
2022-08-19T21:44:12.360Z,38.50
2022-08-19T21:46:42.104Z,23.08
2022-08-19T21:49:10.454Z,28.92
2022-08-19T21:51:38.852Z,27.05
2022-08-19T21:54:07.292Z,22.02
2022-08-19T21:56:42.445Z,21.95
2022-08-19T21:59:10.854Z,27.17
2022-08-19T22:01:39.267Z,20.17
2022-08-19T22:04:09.014Z,26.73
2022-08-19T22:06:37.560Z,27.33
2022-08-19T22:09:06.020Z,24.70
2022-08-19T22:11:34.611Z,24.75
2022-08-19T22:14:04.393Z,23.88
2022-08-19T22:16:33.727Z,32.67
2022-08-19T22:19:02.089Z,25.73
2022-08-19T22:21:40.252Z,37.22
2022-08-19T22:24:10.066Z,29.27
2022-08-19T22:26:38.447Z,29.95
2022-08-19T22:29:07.498Z,36.10
2022-08-19T22:31:37.568Z,41.15
2022-08-19T22:34:06.936Z,38.05
2022-08-19T22:36:36.740Z,41.38
2022-08-19T22:39:05.829Z,38.40
2022-08-19T22:41:34.585Z,46.25
2022-08-19T22:44:03.843Z,38.50
2022-08-19T22:46:33.663Z,47.38
2022-08-19T22:49:02.060Z,45.28
2022-08-19T22:51:48.032Z,39.47
2022-08-19T22:54:18.054Z,55.70
2022-08-19T22:56:46.456Z,49.15
2022-08-19T22:59:14.909Z,50.85
2022-08-19T23:01:43.538Z,42.08
2022-08-19T23:04:12.403Z,51.58
2022-08-19T23:06:42.212Z,38.35
2022-08-19T23:09:16.626Z,39.92
2022-08-19T23:11:47.263Z,45.92
2022-08-19T23:14:15.953Z,42.30
2022-08-19T23:16:50.681Z,45.33
2022-08-19T23:19:19.294Z,39.50
2022-08-19T23:21:48.016Z,45.10
2022-08-19T23:24:16.934Z,46.33
2022-08-19T23:27:00.603Z,40.83
2022-08-19T23:29:47.361Z,43.67
2022-08-19T23:32:17.125Z,54.92
2022-08-19T23:34:45.652Z,53.20
2022-08-19T23:37:14.543Z,48.17
2022-08-19T23:39:43.577Z,61.45
2022-08-19T23:42:15.404Z,54.47
2022-08-19T23:44:51.228Z,48.90
2022-08-19T23:47:20.167Z,68.15
2022-08-19T23:49:48.642Z,73.43
2022-08-19T23:52:17.092Z,66.15
2022-08-19T23:54:45.464Z,63.05
2022-08-19T23:57:15.210Z,76.35
2022-08-19T23:59:45.276Z,67.13
